createdAt,value
2023-05-05T00:00:33.127Z,1.36
2023-05-05T00:03:33.222Z,1.08
2023-05-05T00:06:33.192Z,1.31
2023-05-05T00:09:33.127Z,1.42
2023-05-05T00:12:33.205Z,1.18
2023-05-05T00:15:33.163Z,0.8
2023-05-05T00:18:33.207Z,1.15
2023-05-05T00:21:33.154Z,1.25
2023-05-05T00:24:33.198Z,0.76
2023-05-05T00:27:33.136Z,0.91
2023-05-05T00:30:33.519Z,0.76
2023-05-05T00:33:33.242Z,1.06
2023-05-05T00:36:33.133Z,1.17
2023-05-05T00:39:33.226Z,0.75
2023-05-05T00:42:33.221Z,1.03
2023-05-05T00:45:33.252Z,1.1
2023-05-05T00:48:33.181Z,0.99
2023-05-05T00:51:33.198Z,1.24
2023-05-05T00:54:33.153Z,0.93
2023-05-05T00:57:33.317Z,1.05
2023-05-05T01:00:33.305Z,1.13
2023-05-05T01:03:33.306Z,1.26
2023-05-05T01:06:33.177Z,1.46
2023-05-05T01:09:33.202Z,1.48
2023-05-05T01:12:33.189Z,1.51
2023-05-05T01:15:33.203Z,1.72
2023-05-05T01:18:33.235Z,1.36
2023-05-05T01:21:33.293Z,1.34
2023-05-05T01:24:33.251Z,1.33
2023-05-05T01:27:33.196Z,0.83
2023-05-05T01:30:33.253Z,0.78
2023-05-05T01:33:33.251Z,0.91
2023-05-05T01:36:33.189Z,0.48
2023-05-05T01:39:33.266Z,0.22
2023-05-05T01:42:33.260Z,0.16
2023-05-05T01:45:33.407Z,0.31
2023-05-05T01:48:33.218Z,0.1
2023-05-05T01:51:33.205Z,0.16
2023-05-05T01:54:33.216Z,0.16
2023-05-05T01:57:33.231Z,0.1
2023-05-05T02:00:33.307Z,0.56
2023-05-05T02:03:33.289Z,0.44
2023-05-05T02:06:33.271Z,0.27
2023-05-05T02:09:33.296Z,0.46
2023-05-05T02:12:33.292Z,0.48
2023-05-05T02:15:33.272Z,0.94
2023-05-05T02:18:33.295Z,0.28
2023-05-05T02:21:33.351Z,0.31
2023-05-05T02:24:33.248Z,0.23
2023-05-05T02:27:33.262Z,0.24
2023-05-05T02:30:33.347Z,0.6
2023-05-05T02:33:33.285Z,0.47
2023-05-05T02:36:33.294Z,0.44
2023-05-05T02:39:33.335Z,0.48
2023-05-05T02:42:33.352Z,0.19
2023-05-05T02:45:33.300Z,0.47
2023-05-05T02:48:33.295Z,0.33
2023-05-05T02:51:33.366Z,0.4
2023-05-05T02:54:33.297Z,0.34
2023-05-05T02:57:33.315Z,0.21
2023-05-05T03:00:33.302Z,0.47
2023-05-05T03:03:33.346Z,0.53
2023-05-05T03:06:33.281Z,0.51
2023-05-05T03:09:33.298Z,0.64
2023-05-05T03:12:33.309Z,0.16
2023-05-05T03:15:33.381Z,0.24
2023-05-05T03:18:33.338Z,0.31
2023-05-05T03:21:33.300Z,0.27
2023-05-05T03:24:33.350Z,0.34
2023-05-05T03:27:33.419Z,0.46
2023-05-05T03:30:33.408Z,0.33
2023-05-05T03:33:33.375Z,0.38
2023-05-05T03:36:33.405Z,0.53
2023-05-05T03:39:33.353Z,0.44
2023-05-05T03:42:33.293Z,0.26
2023-05-05T03:45:33.376Z,0.38
2023-05-05T03:48:33.292Z,0.44
2023-05-05T03:51:33.416Z,0.74
2023-05-05T03:54:33.401Z,0.69
2023-05-05T03:57:33.450Z,0.78
2023-05-05T04:00:33.407Z,0.53
2023-05-05T04:03:33.428Z,0.64
2023-05-05T04:06:33.348Z,0.66
2023-05-05T04:09:33.351Z,0.56
2023-05-05T04:12:33.407Z,0.89
2023-05-05T04:15:33.375Z,0.66
2023-05-05T04:18:33.478Z,0.74
2023-05-05T04:21:33.432Z,0.44
2023-05-05T04:24:33.414Z,0.64
2023-05-05T04:27:33.430Z,0.66
2023-05-05T04:30:33.389Z,0.81
2023-05-05T04:33:33.370Z,0.7
2023-05-05T04:36:33.488Z,0.9
2023-05-05T04:39:33.467Z,0.86
2023-05-05T04:42:33.365Z,0.89
2023-05-05T04:45:33.388Z,0.59
2023-05-05T04:48:33.450Z,0.77
2023-05-05T04:51:33.390Z,0.55
2023-05-05T04:54:33.463Z,0.36
2023-05-05T04:57:33.429Z,0.58
2023-05-05T05:00:33.569Z,0.58
2023-05-05T05:03:33.571Z,0.83
2023-05-05T05:06:33.441Z,0.87
2023-05-05T05:09:33.461Z,0.5
2023-05-05T05:12:33.447Z,0.64
2023-05-05T05:15:33.452Z,0.72
2023-05-05T05:18:33.413Z,0.53
2023-05-05T05:21:33.472Z,0.76
2023-05-05T05:24:33.502Z,0.48
2023-05-05T05:27:33.474Z,0.43
2023-05-05T05:30:33.519Z,0.62
2023-05-05T05:33:34.189Z,0.94
2023-05-05T05:36:33.501Z,0.71
2023-05-05T05:39:33.429Z,1.06
2023-05-05T05:42:33.482Z,0.91
2023-05-05T05:45:35.352Z,1.01
2023-05-05T05:48:33.495Z,0.83
2023-05-05T05:51:33.519Z,0.89
2023-05-05T05:54:33.433Z,1.05
2023-05-05T05:57:33.519Z,1.26
2023-05-05T06:00:33.488Z,0.76
2023-05-05T06:03:33.644Z,0.85
2023-05-05T06:06:33.479Z,0.91
2023-05-05T06:09:33.465Z,1.33
2023-05-05T06:12:33.565Z,0.91
2023-05-05T06:15:33.565Z,0.81
2023-05-05T06:18:33.488Z,0.95
2023-05-05T06:21:33.494Z,0.98
2023-05-05T06:24:33.524Z,0.92
2023-05-05T06:27:33.528Z,0.91
2023-05-05T06:30:33.462Z,0.98
2023-05-05T06:33:33.511Z,0.63
2023-05-05T06:36:33.488Z,0.47
2023-05-05T06:39:33.511Z,1.31
2023-05-05T06:42:33.578Z,1.06
2023-05-05T06:45:33.569Z,0.85
2023-05-05T06:48:33.589Z,0.53
2023-05-05T06:51:33.498Z,0.97
2023-05-05T06:54:33.541Z,1.12
2023-05-05T06:57:33.582Z,1.09
2023-05-05T07:00:33.559Z,1.08
2023-05-05T07:03:33.579Z,1.45
2023-05-05T07:06:33.565Z,1.23
2023-05-05T07:09:33.512Z,1.4
2023-05-05T07:12:33.626Z,1.14
2023-05-05T07:15:33.564Z,1.39
2023-05-05T07:18:33.598Z,1.52
2023-05-05T07:21:33.554Z,1.2
2023-05-05T07:24:33.538Z,1.17
2023-05-05T07:27:33.580Z,1.55
2023-05-05T07:30:33.575Z,1.28
2023-05-05T07:33:33.613Z,1.5
2023-05-05T07:36:33.599Z,1.2
2023-05-05T07:39:33.567Z,1.2
2023-05-05T07:42:33.593Z,1.34
2023-05-05T07:45:33.638Z,1.23
2023-05-05T07:48:33.572Z,1.42
2023-05-05T07:51:34.565Z,1.26
2023-05-05T07:54:33.692Z,1.23
2023-05-05T07:57:33.574Z,1.24
2023-05-05T08:00:33.587Z,1.4
2023-05-05T08:03:33.842Z,1.16
2023-05-05T08:06:33.648Z,1.22
2023-05-05T08:09:33.636Z,1.08
2023-05-05T08:12:33.678Z,1.06
2023-05-05T08:15:33.637Z,0.93
2023-05-05T08:18:33.636Z,1.01
2023-05-05T08:21:33.657Z,0.91
2023-05-05T08:24:33.656Z,1
2023-05-05T08:27:33.620Z,1.13
2023-05-05T08:30:33.651Z,0.85
2023-05-05T08:33:33.625Z,0.91
2023-05-05T08:36:33.702Z,0.84
2023-05-05T08:39:33.595Z,0.81
2023-05-05T08:42:38.357Z,0.81
2023-05-05T08:45:33.602Z,0.43
2023-05-05T08:48:33.648Z,0.91
2023-05-05T08:51:33.716Z,0.68
2023-05-05T08:54:33.670Z,0.59
2023-05-05T08:57:33.624Z,0.74
2023-05-05T09:00:33.637Z,0.76
2023-05-05T09:03:33.675Z,0.6
2023-05-05T09:06:33.610Z,0.8
2023-05-05T09:09:33.768Z,0.46
2023-05-05T09:12:33.726Z,0.75
2023-05-05T09:15:33.628Z,0.89
2023-05-05T09:18:33.594Z,0.99
2023-05-05T09:21:33.649Z,0.99
2023-05-05T09:24:33.673Z,0.45
2023-05-05T09:27:33.634Z,0.95
2023-05-05T09:30:33.745Z,1.08
2023-05-05T09:33:33.672Z,0.8
2023-05-05T09:36:33.701Z,1.02
2023-05-05T09:39:33.650Z,1.21
2023-05-05T09:42:33.680Z,0.77
2023-05-05T09:45:33.609Z,0.86
2023-05-05T09:48:33.721Z,0.89
2023-05-05T09:51:33.736Z,1.03
2023-05-05T09:54:33.704Z,1.13
2023-05-05T09:57:33.671Z,0.88
2023-05-05T10:00:33.682Z,0.98
2023-05-05T10:03:33.725Z,1.1
2023-05-05T10:06:33.735Z,0.87
2023-05-05T10:09:33.693Z,0.97
2023-05-05T10:12:33.727Z,0.67
2023-05-05T10:15:33.749Z,1.46
2023-05-05T10:18:33.760Z,1.06
2023-05-05T10:21:33.749Z,0.69
2023-05-05T10:24:33.749Z,0.82
2023-05-05T10:27:33.672Z,1.11
2023-05-05T10:30:33.690Z,0.98
2023-05-05T10:33:33.762Z,0.58
2023-05-05T10:36:33.752Z,0.64
2023-05-05T10:39:33.749Z,0.4
2023-05-05T10:42:33.788Z,0.89
2023-05-05T10:45:33.752Z,0.49
2023-05-05T10:48:33.787Z,0.25
2023-05-05T10:51:39.804Z,0.6
2023-05-05T10:54:34.648Z,0.44
2023-05-05T10:57:33.721Z,0.6
2023-05-05T11:00:33.757Z,0.66
2023-05-05T11:03:33.820Z,0.61
2023-05-05T11:06:33.803Z,0.59
2023-05-05T11:09:33.797Z,0.8
2023-05-05T11:12:34.293Z,0.56
2023-05-05T11:15:33.771Z,0.41
2023-05-05T11:18:33.775Z,0.47
2023-05-05T11:21:33.721Z,0.32
2023-05-05T11:24:33.874Z,0.45
2023-05-05T11:27:33.845Z,0.4
2023-05-05T11:30:33.738Z,0.55
2023-05-05T11:33:33.839Z,0.61
2023-05-05T11:36:33.802Z,0.45
2023-05-05T11:39:33.774Z,0.55
2023-05-05T11:42:33.838Z,0.6
2023-05-05T11:45:33.839Z,0.56
2023-05-05T11:48:33.758Z,0.73
2023-05-05T11:51:33.851Z,0.49
2023-05-05T11:54:33.779Z,0.63
2023-05-05T11:57:33.798Z,0.73
2023-05-05T12:00:33.778Z,0.65
2023-05-05T12:03:33.994Z,0.8
2023-05-05T12:06:33.786Z,0.79
2023-05-05T12:09:33.870Z,0.45
2023-05-05T12:12:33.867Z,0.82
2023-05-05T12:15:33.930Z,0.76
2023-05-05T12:18:36.246Z,0.52
2023-05-05T12:21:33.811Z,0.64
2023-05-05T12:24:33.900Z,0.98
2023-05-05T12:27:33.803Z,0.84
2023-05-05T12:30:33.837Z,0.59
2023-05-05T12:33:33.818Z,0.81
2023-05-05T12:36:33.901Z,0.59
2023-05-05T12:39:33.898Z,0.9
2023-05-05T12:42:33.873Z,0.55
2023-05-05T12:45:33.871Z,0.57
2023-05-05T12:48:33.894Z,0.94
2023-05-05T12:51:33.832Z,0.71
2023-05-05T12:54:33.897Z,0.88
2023-05-05T12:57:33.912Z,0.49
2023-05-05T13:00:33.933Z,0.84
2023-05-05T13:03:33.843Z,0.82
2023-05-05T13:06:33.935Z,0.98
2023-05-05T13:09:33.887Z,0.79
2023-05-05T13:12:33.944Z,0.71
2023-05-05T13:15:33.942Z,0.83
2023-05-05T13:18:33.970Z,0.74
2023-05-05T13:21:33.926Z,0.43
2023-05-05T13:24:47.104Z,0.39
2023-05-05T13:27:33.877Z,0.87
2023-05-05T13:30:33.931Z,1.08
2023-05-05T13:33:33.894Z,0.8
2023-05-05T13:36:33.891Z,0.82
2023-05-05T13:39:33.914Z,0.94
2023-05-05T13:42:33.955Z,0.76
2023-05-05T13:45:33.940Z,0.53
2023-05-05T13:48:33.953Z,0.91
2023-05-05T13:51:33.954Z,0.64
2023-05-05T13:54:33.928Z,0.18
2023-05-05T13:57:33.907Z,0.36
2023-05-05T14:00:33.942Z,0.6
2023-05-05T14:03:33.985Z,0.96
2023-05-05T14:06:33.966Z,1.04
2023-05-05T14:09:33.920Z,0.7
2023-05-05T14:12:33.957Z,0.6
2023-05-05T14:15:33.979Z,0.3
2023-05-05T14:18:33.990Z,0.22
2023-05-05T14:21:33.965Z,0.51
2023-05-05T14:24:34.032Z,0.51
2023-05-05T14:27:33.983Z,0.46
2023-05-05T14:30:33.998Z,0.95
2023-05-05T14:33:34.043Z,0.8
2023-05-05T14:36:34.008Z,1.08
2023-05-05T14:39:33.968Z,1.04
2023-05-05T14:42:33.989Z,1.18
2023-05-05T14:45:33.952Z,1.2
2023-05-05T14:48:34.023Z,0.87
2023-05-05T14:51:34.007Z,0.89
2023-05-05T14:54:34.022Z,1.06
2023-05-05T14:57:34.019Z,1.18
2023-05-05T15:00:34.027Z,1.35
2023-05-05T15:03:34.007Z,1.22
2023-05-05T15:06:33.972Z,1.21
2023-05-05T15:09:33.980Z,1.36
2023-05-05T15:12:34.042Z,1.13
2023-05-05T15:15:33.999Z,1.14
2023-05-05T15:18:34.054Z,1.28
2023-05-05T15:21:33.990Z,0.83
2023-05-05T15:24:34.047Z,0.55
2023-05-05T15:27:33.990Z,0.57
2023-05-05T15:30:34.047Z,0.54
2023-05-05T15:33:34.038Z,0.63
2023-05-05T15:36:34.059Z,0.62
2023-05-05T15:39:34.026Z,0.62
2023-05-05T15:42:34.071Z,0.41
2023-05-05T15:45:34.052Z,0.43
2023-05-05T15:48:34.026Z,0.46
2023-05-05T15:51:34.016Z,0.46
2023-05-05T15:54:34.100Z,0.41
2023-05-05T15:57:34.014Z,0.47
2023-05-05T16:00:34.006Z,0.46
2023-05-05T16:03:34.126Z,0.46
2023-05-05T16:06:34.068Z,0.25
2023-05-05T16:09:34.011Z,0.5
2023-05-05T16:12:34.121Z,0.23
2023-05-05T16:15:34.004Z,0.3
2023-05-05T16:18:34.010Z,0.37
2023-05-05T16:21:34.076Z,0.16
2023-05-05T16:24:34.065Z,0.16
2023-05-05T16:27:34.032Z,0.32
2023-05-05T16:30:34.037Z,0.41
2023-05-05T16:33:34.242Z,0.31
2023-05-05T16:36:34.126Z,0.15
2023-05-05T16:39:34.092Z,0.17
2023-05-05T16:42:34.104Z,0.06
2023-05-05T16:45:34.063Z,0.19
2023-05-05T16:48:34.082Z,0.04
2023-05-05T16:51:34.268Z,0.01
2023-05-05T16:54:34.077Z,0.32
2023-05-05T16:57:34.142Z,0.53
2023-05-05T17:00:34.054Z,0.53
2023-05-05T17:03:34.087Z,0.4
2023-05-05T17:06:34.115Z,0.13
2023-05-05T17:09:34.049Z,0.29
2023-05-05T17:12:34.085Z,0.26
2023-05-05T17:15:34.207Z,0.19
2023-05-05T17:18:34.223Z,0.21
2023-05-05T17:21:34.241Z,0.08
2023-05-05T17:24:34.215Z,0.16
2023-05-05T17:27:34.065Z,0.22
2023-05-05T17:30:34.173Z,0.16
2023-05-05T17:33:34.082Z,0.18
2023-05-05T17:36:34.223Z,0.01
2023-05-05T17:39:34.295Z,0.16
2023-05-05T17:42:34.138Z,0.09
2023-05-05T17:45:34.235Z,0.2
2023-05-05T17:48:34.114Z,0.53
2023-05-05T17:51:34.139Z,0.6
2023-05-05T17:54:34.312Z,1.12
2023-05-05T17:57:34.177Z,0.81
2023-05-05T18:00:34.214Z,1.33
2023-05-05T18:03:34.222Z,1.77
2023-05-05T18:06:34.179Z,1.33
2023-05-05T18:09:34.289Z,1.29
2023-05-05T18:12:34.217Z,0.85
2023-05-05T18:15:34.223Z,0.68
2023-05-05T18:18:34.237Z,0.51
2023-05-05T18:21:34.104Z,0.46
2023-05-05T18:24:34.124Z,0.54
2023-05-05T18:27:34.194Z,0.04
2023-05-05T18:30:34.229Z,0.04
2023-05-05T18:33:34.289Z,0.21
2023-05-05T18:36:34.176Z,0.36
2023-05-05T18:39:34.203Z,0.4
2023-05-05T18:42:34.310Z,0.29
2023-05-05T18:45:34.138Z,0
2023-05-05T18:48:34.278Z,0.06
2023-05-05T18:51:34.209Z,0.07
2023-05-05T18:54:35.542Z,0.15
2023-05-05T18:57:34.182Z,0.76
2023-05-05T19:00:34.282Z,0.86
2023-05-05T19:03:34.256Z,0.68
2023-05-05T19:06:34.188Z,0.56
2023-05-05T19:09:34.221Z,0.21
2023-05-05T19:12:34.259Z,0.14
2023-05-05T19:15:34.279Z,0.06
2023-05-05T19:18:34.204Z,0.06
2023-05-05T19:21:34.396Z,0.07
2023-05-05T19:24:34.170Z,0.75
2023-05-05T19:27:34.257Z,0.54
2023-05-05T19:30:34.181Z,0.63
2023-05-05T19:33:34.263Z,0.53
2023-05-05T19:36:34.241Z,0.33
2023-05-05T19:39:34.198Z,0.46
2023-05-05T19:42:34.210Z,0.15
2023-05-05T19:45:34.210Z,0.13
2023-05-05T19:48:34.265Z,0.51
2023-05-05T19:51:34.195Z,0.46
2023-05-05T19:54:34.293Z,0.29
2023-05-05T19:57:34.282Z,0.38
2023-05-05T20:00:34.201Z,0.42
2023-05-05T20:03:34.357Z,0.6
2023-05-05T20:06:34.223Z,0.44
2023-05-05T20:09:34.194Z,0.57
2023-05-05T20:12:34.291Z,0.57
2023-05-05T20:15:34.361Z,0.52
2023-05-05T20:18:34.320Z,0.34
2023-05-05T20:21:34.247Z,0.34
2023-05-05T20:24:34.355Z,0.51
2023-05-05T20:27:35.916Z,0.26
2023-05-05T20:30:34.270Z,0.25
2023-05-05T20:33:34.484Z,0.24
2023-05-05T20:36:34.257Z,0.25
2023-05-05T20:39:34.323Z,0.43
2023-05-05T20:42:34.240Z,0.52
2023-05-05T20:45:34.282Z,0.3
2023-05-05T20:48:34.284Z,0.53
2023-05-05T20:51:34.339Z,0.47
2023-05-05T20:54:34.308Z,0.52
2023-05-05T20:57:34.292Z,0.33
2023-05-05T21:00:34.353Z,0.52
2023-05-05T21:03:34.364Z,0.38
2023-05-05T21:06:34.342Z,0.34
2023-05-05T21:09:34.335Z,0.17
2023-05-05T21:12:34.404Z,0.26
2023-05-05T21:15:35.169Z,0.26
2023-05-05T21:18:34.358Z,0.12
2023-05-05T21:21:34.432Z,0.1
2023-05-05T21:24:34.310Z,0.2
2023-05-05T21:27:34.289Z,0.12
2023-05-05T21:30:34.392Z,0.12
2023-05-05T21:33:34.342Z,0.29
2023-05-05T21:36:34.292Z,0.12
2023-05-05T21:39:34.364Z,0.15
2023-05-05T21:42:34.389Z,0.02
2023-05-05T21:45:34.416Z,0.19
2023-05-05T21:48:34.368Z,0.39
2023-05-05T21:51:34.330Z,0.32
2023-05-05T21:54:34.321Z,0.19
2023-05-05T21:57:34.396Z,0.46
2023-05-05T22:00:34.414Z,0.46
2023-05-05T22:03:34.465Z,0.29
2023-05-05T22:06:34.393Z,0.39
2023-05-05T22:09:34.392Z,0.49
2023-05-05T22:12:34.374Z,0.35
2023-05-05T22:15:43.013Z,0.23
2023-05-05T22:18:34.466Z,0.06
2023-05-05T22:21:34.353Z,0.61
2023-05-05T22:24:34.352Z,0.14
2023-05-05T22:27:34.361Z,0.18
2023-05-05T22:30:34.321Z,0.18
2023-05-05T22:33:34.425Z,0.12
2023-05-05T22:36:34.393Z,0.17
2023-05-05T22:39:34.417Z,0.22
2023-05-05T22:42:34.435Z,0.32
2023-05-05T22:45:34.429Z,0.31
2023-05-05T22:48:34.434Z,0.34
2023-05-05T22:51:34.348Z,0.47
2023-05-05T22:54:34.369Z,0.79
2023-05-05T22:57:34.367Z,0.62
2023-05-05T23:00:34.376Z,0.6
2023-05-05T23:03:34.424Z,0.36
2023-05-05T23:06:34.472Z,0.37
2023-05-05T23:09:34.419Z,0.3
2023-05-05T23:12:34.408Z,0.19
2023-05-05T23:15:34.464Z,0.23
2023-05-05T23:18:34.391Z,0.15
2023-05-05T23:21:39.071Z,0.46
2023-05-05T23:24:34.401Z,0.18
2023-05-05T23:27:34.469Z,0.61
2023-05-05T23:30:34.695Z,0.23
2023-05-05T23:33:34.384Z,0.42
2023-05-05T23:36:34.473Z,0.28
2023-05-05T23:39:34.422Z,0.03
2023-05-05T23:42:34.500Z,0.05
2023-05-05T23:45:34.409Z,0.52
2023-05-05T23:48:34.505Z,0.34
2023-05-05T23:51:34.520Z,0.37
2023-05-05T23:54:34.533Z,0.33
2023-05-05T23:57:34.480Z,0.34
